createdAt,value
2022-12-25T00:02:30.006Z,14.49
2022-12-25T00:05:27.492Z,14.74
2022-12-25T00:08:25.250Z,15.04
2022-12-25T00:11:22.681Z,15.04
2022-12-25T00:14:20.403Z,14.22
2022-12-25T00:17:18.151Z,13.44
2022-12-25T00:20:15.584Z,12.86
2022-12-25T00:23:13.292Z,12.38
2022-12-25T00:26:10.722Z,12.00
2022-12-25T00:29:08.359Z,11.99
2022-12-25T00:32:05.793Z,13.13
2022-12-25T00:35:03.566Z,13.78
2022-12-25T00:38:01.024Z,14.45
2022-12-25T00:40:58.756Z,14.81
2022-12-25T00:43:56.778Z,15.01
2022-12-25T00:46:54.335Z,14.95
2022-12-25T00:49:52.174Z,14.06
2022-12-25T00:52:49.607Z,13.26
2022-12-25T00:55:47.296Z,12.65
2022-12-25T00:58:44.730Z,12.16
2022-12-25T01:01:42.573Z,11.75
2022-12-25T01:04:40.443Z,11.66
2022-12-25T01:07:37.897Z,12.49
2022-12-25T01:10:35.591Z,13.38
2022-12-25T01:13:34.713Z,13.82
2022-12-25T01:16:32.454Z,14.02
2022-12-25T01:19:29.937Z,14.08
2022-12-25T01:22:27.701Z,14.00
2022-12-25T01:25:25.147Z,13.87
2022-12-25T01:28:22.761Z,13.85
2022-12-25T01:31:20.424Z,13.83
2022-12-25T01:34:17.874Z,13.99
2022-12-25T01:37:15.618Z,14.32
2022-12-25T01:40:13.062Z,14.34
2022-12-25T01:43:17.054Z,13.57
2022-12-25T01:46:16.516Z,12.78
2022-12-25T01:49:14.148Z,12.20
2022-12-25T01:52:11.791Z,11.74
2022-12-25T01:55:12.261Z,11.37
2022-12-25T01:58:10.025Z,11.04
2022-12-25T02:01:07.561Z,11.05
2022-12-25T02:04:05.282Z,12.00
2022-12-25T02:07:02.720Z,12.66
2022-12-25T02:10:00.460Z,13.10
2022-12-25T02:12:57.933Z,13.31
2022-12-25T02:15:55.618Z,13.48
2022-12-25T02:18:53.077Z,13.83
2022-12-25T02:21:50.715Z,14.16
2022-12-25T02:24:48.366Z,14.46
2022-12-25T02:27:45.828Z,14.39
2022-12-25T02:30:43.524Z,13.62
2022-12-25T02:33:59.012Z,12.88
2022-12-25T02:36:56.747Z,12.27
2022-12-25T02:40:00.451Z,11.85
2022-12-25T02:43:16.023Z,11.48
2022-12-25T02:46:31.408Z,11.15
2022-12-25T02:49:46.736Z,11.22
2022-12-25T02:53:02.171Z,11.92
2022-12-25T02:56:17.189Z,12.10
2022-12-25T02:59:32.498Z,12.09
2022-12-25T03:02:47.714Z,12.23
2022-12-25T03:06:03.153Z,12.47
2022-12-25T03:09:20.930Z,12.68
2022-12-25T03:12:18.374Z,12.76
2022-12-25T03:15:36.113Z,12.82
2022-12-25T03:18:33.895Z,13.18
2022-12-25T03:21:49.161Z,13.43
2022-12-25T03:25:04.578Z,13.62
2022-12-25T03:28:02.018Z,13.40
2022-12-25T03:31:15.124Z,13.20
2022-12-25T03:34:30.665Z,13.02
2022-12-25T03:37:45.084Z,13.46
2022-12-25T03:41:00.447Z,14.01
2022-12-25T03:44:30.502Z,14.03
2022-12-25T03:47:45.805Z,13.96
2022-12-25T03:51:01.164Z,13.94
2022-12-25T03:54:16.538Z,13.71
2022-12-25T03:57:31.792Z,12.84
2022-12-25T04:00:47.441Z,12.08
2022-12-25T04:04:02.372Z,11.51
2022-12-25T04:07:22.788Z,11.05
2022-12-25T04:10:37.988Z,11.00
2022-12-25T04:13:53.525Z,11.52
2022-12-25T04:17:08.887Z,11.63
2022-12-25T04:20:24.265Z,11.61
2022-12-25T04:23:39.597Z,11.91
2022-12-25T04:26:54.610Z,12.56
2022-12-25T04:30:10.325Z,12.84
2022-12-25T04:33:37.354Z,13.10
2022-12-25T04:36:34.790Z,13.14
2022-12-25T04:39:32.521Z,13.21
2022-12-25T04:42:29.954Z,13.56
2022-12-25T04:45:27.632Z,13.85
2022-12-25T04:48:25.062Z,14.17
2022-12-25T04:51:22.851Z,14.38
2022-12-25T04:54:20.296Z,14.09
2022-12-25T04:57:18.499Z,13.15
2022-12-25T05:00:16.339Z,12.33
2022-12-25T05:03:13.897Z,11.71
2022-12-25T05:06:11.680Z,11.19
2022-12-25T05:09:09.177Z,10.77
2022-12-25T05:12:06.844Z,10.52
2022-12-25T05:15:04.325Z,11.19
2022-12-25T05:18:02.032Z,12.24
2022-12-25T05:20:59.449Z,12.68
2022-12-25T05:23:57.164Z,13.07
2022-12-25T05:26:54.588Z,13.27
2022-12-25T05:29:52.296Z,13.37
2022-12-25T05:32:49.727Z,13.40
2022-12-25T05:35:47.535Z,13.46
2022-12-25T05:38:45.266Z,13.53
2022-12-25T05:41:42.704Z,13.36
2022-12-25T05:44:40.404Z,12.47
2022-12-25T05:47:37.825Z,11.59
2022-12-25T05:50:35.558Z,10.84
2022-12-25T05:53:33.115Z,10.27
2022-12-25T05:56:30.865Z,9.81
2022-12-25T05:59:28.598Z,9.69
2022-12-25T06:02:26.190Z,9.99
2022-12-25T06:05:24.125Z,9.99
2022-12-25T06:08:21.574Z,9.91
2022-12-25T06:11:19.286Z,9.99
2022-12-25T06:14:16.769Z,10.02
2022-12-25T06:17:14.503Z,10.02
2022-12-25T06:20:11.938Z,10.01
2022-12-25T06:23:09.683Z,10.03
2022-12-25T06:26:07.196Z,10.16
2022-12-25T06:29:04.966Z,10.54
2022-12-25T06:32:02.701Z,10.79
2022-12-25T06:35:00.310Z,11.20
2022-12-25T06:37:58.177Z,11.85
2022-12-25T06:40:55.626Z,12.20
2022-12-25T06:43:53.299Z,12.42
2022-12-25T06:46:51.071Z,12.48
2022-12-25T06:49:48.497Z,12.81
2022-12-25T06:52:46.273Z,13.11
2022-12-25T06:55:43.708Z,13.09
2022-12-25T06:58:41.393Z,13.14
2022-12-25T07:01:38.919Z,13.64
2022-12-25T07:04:38.473Z,14.02
2022-12-25T07:07:35.914Z,13.68
2022-12-25T07:10:33.615Z,12.66
2022-12-25T07:13:31.083Z,11.77
2022-12-25T07:16:28.827Z,11.12
2022-12-25T07:19:26.570Z,10.60
2022-12-25T07:22:23.964Z,10.19
2022-12-25T07:25:21.559Z,9.99
2022-12-25T07:28:18.984Z,10.55
2022-12-25T07:31:16.766Z,12.12
2022-12-25T07:34:14.294Z,13.34
2022-12-25T07:37:11.912Z,13.92
2022-12-25T07:40:09.331Z,14.36
2022-12-25T07:43:07.096Z,14.64
2022-12-25T07:46:05.140Z,14.66
2022-12-25T07:49:02.875Z,13.72
2022-12-25T07:52:00.310Z,12.84
2022-12-25T07:54:58.073Z,12.19
2022-12-25T07:57:55.491Z,11.70
2022-12-25T08:00:53.365Z,11.28
2022-12-25T08:03:51.692Z,11.31
2022-12-25T08:06:49.329Z,11.91
2022-12-25T08:09:46.957Z,12.02
2022-12-25T08:12:44.404Z,12.05
2022-12-25T08:15:42.235Z,12.13
2022-12-25T08:18:39.668Z,12.45
2022-12-25T08:21:37.450Z,13.21
2022-12-25T08:24:34.875Z,14.06
2022-12-25T08:27:32.677Z,14.73
2022-12-25T08:30:30.422Z,15.17
2022-12-25T08:33:28.318Z,15.54
2022-12-25T08:36:26.076Z,15.55
2022-12-25T08:39:23.527Z,14.61
2022-12-25T08:42:21.306Z,13.74
2022-12-25T08:45:18.735Z,13.12
2022-12-25T08:48:16.468Z,12.61
2022-12-25T08:51:15.634Z,12.18
2022-12-25T08:54:13.524Z,11.86
2022-12-25T08:57:10.951Z,12.02
2022-12-25T09:00:09.242Z,13.66
2022-12-25T09:03:06.763Z,15.20
2022-12-25T09:06:04.557Z,15.79
2022-12-25T09:09:02.252Z,16.03
2022-12-25T09:11:59.673Z,15.25
2022-12-25T09:14:57.467Z,14.45
2022-12-25T09:17:54.894Z,13.86
2022-12-25T09:20:52.682Z,13.42
2022-12-25T09:23:50.448Z,13.12
2022-12-25T09:26:47.867Z,12.88
2022-12-25T09:29:45.582Z,12.60
2022-12-25T09:32:43.032Z,12.34
2022-12-25T09:35:40.618Z,12.14
2022-12-25T09:38:38.067Z,12.27
2022-12-25T09:41:35.685Z,13.75
2022-12-25T09:44:33.139Z,15.18
2022-12-25T09:47:30.848Z,15.72
2022-12-25T09:50:28.250Z,15.61
2022-12-25T09:53:25.846Z,14.79
2022-12-25T09:56:25.861Z,14.06
2022-12-25T09:59:23.277Z,13.52
2022-12-25T10:02:21.330Z,13.07
2022-12-25T10:05:18.981Z,12.73
2022-12-25T10:08:16.601Z,12.45
2022-12-25T10:11:14.046Z,12.25
2022-12-25T10:14:11.776Z,12.16
2022-12-25T10:17:09.540Z,12.10
2022-12-25T10:20:08.348Z,12.02
2022-12-25T10:23:05.957Z,11.96
2022-12-25T10:26:04.328Z,11.96
2022-12-25T10:29:01.994Z,12.01
2022-12-25T10:31:59.446Z,12.00
2022-12-25T10:34:57.181Z,11.91
2022-12-25T10:37:55.444Z,11.77
2022-12-25T10:40:53.130Z,11.66
2022-12-25T10:43:50.765Z,11.57
2022-12-25T10:46:48.228Z,11.49
2022-12-25T10:49:45.910Z,11.40
2022-12-25T10:52:43.335Z,11.31
2022-12-25T10:55:40.948Z,11.49
2022-12-25T10:58:38.387Z,12.17
2022-12-25T11:01:36.185Z,12.50
2022-12-25T11:04:33.777Z,12.56
2022-12-25T11:07:31.216Z,12.64
2022-12-25T11:10:28.948Z,12.73
2022-12-25T11:13:27.075Z,12.81
2022-12-25T11:16:24.866Z,12.95
2022-12-25T11:19:22.427Z,13.51
2022-12-25T11:22:20.103Z,14.01
2022-12-25T11:25:17.611Z,13.58
2022-12-25T11:28:15.068Z,13.11
2022-12-25T11:31:13.106Z,12.77
2022-12-25T11:34:11.473Z,12.51
2022-12-25T11:37:09.464Z,12.28
2022-12-25T11:40:07.516Z,12.09
2022-12-25T11:43:08.191Z,11.94
2022-12-25T11:46:05.910Z,11.79
2022-12-25T11:49:03.719Z,11.68
2022-12-25T11:52:01.193Z,11.59
2022-12-25T11:54:58.925Z,11.67
2022-12-25T11:57:56.700Z,12.13
2022-12-25T12:00:54.175Z,13.38
2022-12-25T12:03:51.980Z,14.49
2022-12-25T12:06:49.454Z,15.15
2022-12-25T12:09:47.144Z,15.13
2022-12-25T12:12:48.840Z,14.41
2022-12-25T12:15:46.977Z,13.73
2022-12-25T12:18:50.337Z,13.23
2022-12-25T12:21:48.468Z,12.87
2022-12-25T12:24:46.117Z,12.60
2022-12-25T12:27:43.565Z,12.38
2022-12-25T12:30:41.116Z,12.22
2022-12-25T12:33:38.553Z,12.09
2022-12-25T12:36:37.003Z,12.00
2022-12-25T12:39:34.557Z,11.92
2022-12-25T12:42:32.333Z,12.07
2022-12-25T12:45:29.802Z,12.93
2022-12-25T12:48:27.656Z,13.29
2022-12-25T12:51:25.420Z,13.48
2022-12-25T12:54:22.869Z,13.90
2022-12-25T12:57:20.636Z,14.17
2022-12-25T13:00:18.091Z,14.43
2022-12-25T13:03:15.814Z,14.38
2022-12-25T13:06:13.288Z,13.96
2022-12-25T13:09:11.067Z,13.53
2022-12-25T13:12:08.519Z,13.20
2022-12-25T13:15:06.452Z,12.93
2022-12-25T13:18:03.868Z,12.72
2022-12-25T13:21:01.668Z,12.55
2022-12-25T13:23:59.451Z,12.55
2022-12-25T13:26:56.931Z,13.05
2022-12-25T13:29:54.657Z,13.25
2022-12-25T13:32:52.172Z,13.33
2022-12-25T13:35:49.795Z,13.45
2022-12-25T13:38:47.647Z,13.57
2022-12-25T13:42:02.699Z,13.59
2022-12-25T13:45:00.384Z,13.66
2022-12-25T13:47:57.947Z,13.78
2022-12-25T13:50:56.185Z,13.85
2022-12-25T13:53:53.625Z,13.87
2022-12-25T13:56:51.352Z,13.90
2022-12-25T13:59:49.110Z,13.92
2022-12-25T14:02:46.723Z,13.94
2022-12-25T14:05:44.427Z,13.91
2022-12-25T14:08:41.846Z,13.85
2022-12-25T14:11:39.565Z,13.78
2022-12-25T14:14:37.025Z,13.74
2022-12-25T14:17:34.628Z,13.88
2022-12-25T14:20:32.052Z,13.97
2022-12-25T14:23:29.821Z,13.85
2022-12-25T14:26:27.276Z,13.59
2022-12-25T14:29:28.303Z,13.53
2022-12-25T14:32:26.280Z,13.56
2022-12-25T14:35:23.992Z,13.60
2022-12-25T14:38:21.801Z,13.51
2022-12-25T14:41:25.770Z,13.19
2022-12-25T14:44:23.901Z,13.16
2022-12-25T14:47:21.604Z,13.12
2022-12-25T14:50:19.345Z,13.06
2022-12-25T14:53:16.776Z,12.94
2022-12-25T14:56:15.182Z,13.30
2022-12-25T14:59:12.614Z,13.98
2022-12-25T15:02:15.086Z,14.29
2022-12-25T15:05:16.630Z,14.41
2022-12-25T15:08:14.052Z,14.80
2022-12-25T15:11:11.803Z,15.06
2022-12-25T15:14:09.218Z,14.95
2022-12-25T15:17:06.977Z,14.70
2022-12-25T15:20:06.484Z,14.85
2022-12-25T15:23:19.328Z,15.69
2022-12-25T15:26:17.840Z,15.86
2022-12-25T15:29:15.271Z,14.79
2022-12-25T15:32:12.848Z,13.82
2022-12-25T15:35:10.262Z,13.08
2022-12-25T15:38:07.990Z,12.48
2022-12-25T15:41:05.407Z,11.97
2022-12-25T15:44:03.124Z,11.51
2022-12-25T15:47:00.526Z,11.41
2022-12-25T15:49:58.223Z,12.20
2022-12-25T15:52:55.623Z,12.68
2022-12-25T15:55:53.242Z,12.74
2022-12-25T15:58:50.875Z,12.93
2022-12-25T16:01:48.458Z,13.21
2022-12-25T16:04:46.235Z,13.00
2022-12-25T16:07:43.687Z,12.98
2022-12-25T16:10:41.356Z,13.24
2022-12-25T16:13:38.769Z,13.12
2022-12-25T16:16:36.589Z,12.99
2022-12-25T16:19:34.047Z,13.12
2022-12-25T16:22:32.329Z,13.08
2022-12-25T16:25:30.121Z,12.92
2022-12-25T16:28:27.538Z,12.82
2022-12-25T16:31:25.344Z,12.70
2022-12-25T16:34:22.911Z,12.63
2022-12-25T16:37:20.440Z,12.66
2022-12-25T16:40:18.077Z,12.74
2022-12-25T16:43:21.924Z,12.84
2022-12-25T16:46:21.525Z,12.89
2022-12-25T16:49:19.260Z,12.93
2022-12-25T16:52:16.984Z,12.93
2022-12-25T16:55:14.408Z,12.89
2022-12-25T16:58:12.215Z,12.68
2022-12-25T17:01:09.678Z,12.09
2022-12-25T17:04:07.404Z,11.29
2022-12-25T17:07:04.917Z,10.62
2022-12-25T17:10:03.979Z,10.32
2022-12-25T17:13:01.388Z,11.10
2022-12-25T17:15:59.250Z,11.73
2022-12-25T17:18:57.022Z,12.07
2022-12-25T17:21:54.853Z,12.09
2022-12-25T17:24:52.523Z,12.26
2022-12-25T17:27:49.956Z,12.99
2022-12-25T17:30:47.743Z,13.70
2022-12-25T17:33:45.177Z,14.16
2022-12-25T17:36:42.990Z,13.99
2022-12-25T17:39:40.754Z,12.91
2022-12-25T17:42:38.225Z,11.84
2022-12-25T17:45:35.997Z,11.05
2022-12-25T17:48:33.441Z,10.41
2022-12-25T17:51:31.233Z,9.89
2022-12-25T17:54:28.655Z,9.92
2022-12-25T17:57:26.435Z,11.65
2022-12-25T18:00:23.919Z,12.88
2022-12-25T18:03:21.715Z,13.39
2022-12-25T18:06:19.314Z,13.67
2022-12-25T18:09:16.995Z,13.95
2022-12-25T18:12:15.416Z,13.86
2022-12-25T18:15:13.025Z,12.65
2022-12-25T18:18:10.656Z,11.50
2022-12-25T18:21:08.107Z,10.64
2022-12-25T18:24:05.948Z,9.97
2022-12-25T18:27:03.392Z,9.41
2022-12-25T18:30:00.841Z,8.93
2022-12-25T18:32:58.281Z,8.94
2022-12-25T18:35:55.971Z,10.36
2022-12-25T18:38:53.662Z,11.17
2022-12-25T18:42:08.689Z,11.49
2022-12-25T18:45:06.476Z,12.07
2022-12-25T18:48:06.559Z,12.16
2022-12-25T18:51:04.398Z,12.17
2022-12-25T18:54:02.663Z,12.29
2022-12-25T18:57:05.404Z,12.13
2022-12-25T19:00:05.082Z,12.11
2022-12-25T19:03:03.802Z,11.48
2022-12-25T19:06:02.023Z,10.52
2022-12-25T19:09:00.263Z,9.73
2022-12-25T19:11:58.263Z,9.09
2022-12-25T19:14:55.690Z,8.54
2022-12-25T19:17:53.548Z,8.35
2022-12-25T19:20:51.073Z,9.05
2022-12-25T19:23:48.806Z,9.46
2022-12-25T19:26:46.247Z,9.62
2022-12-25T19:29:44.177Z,9.90
2022-12-25T19:32:41.712Z,10.17
2022-12-25T19:35:39.656Z,10.24
2022-12-25T19:38:37.262Z,10.56
2022-12-25T19:41:35.010Z,10.66
2022-12-25T19:44:32.438Z,10.80
2022-12-25T19:47:30.036Z,11.01
2022-12-25T19:50:28.849Z,11.30
2022-12-25T19:53:27.313Z,11.47
2022-12-25T19:56:25.092Z,11.44
2022-12-25T19:59:23.378Z,11.34
2022-12-25T20:02:21.486Z,11.27
2022-12-25T20:05:19.140Z,12.09
2022-12-25T20:08:17.891Z,12.64
2022-12-25T20:11:16.085Z,12.81
2022-12-25T20:14:13.770Z,12.32
2022-12-25T20:17:15.791Z,11.21
2022-12-25T20:20:14.717Z,10.23
2022-12-25T20:23:12.490Z,9.48
2022-12-25T20:26:11.351Z,8.91
2022-12-25T20:29:09.252Z,8.74
2022-12-25T20:32:07.336Z,9.14
2022-12-25T20:35:05.548Z,9.08
2022-12-25T20:38:03.223Z,9.00
2022-12-25T20:41:26.309Z,8.86
2022-12-25T20:44:19.761Z,8.68
2022-12-25T20:47:17.908Z,8.60
2022-12-25T20:50:15.597Z,8.59
2022-12-25T20:53:13.366Z,8.60
2022-12-25T20:56:11.123Z,8.49
2022-12-25T20:59:09.075Z,8.48
2022-12-25T21:02:07.032Z,8.31
2022-12-25T21:05:05.126Z,8.36
2022-12-25T21:08:02.872Z,9.33
2022-12-25T21:11:01.269Z,10.68
2022-12-25T21:13:59.064Z,11.36
2022-12-25T21:16:58.096Z,11.85
2022-12-25T21:19:55.593Z,12.25
2022-12-25T21:22:53.309Z,12.50
2022-12-25T21:25:51.068Z,12.53
2022-12-25T21:28:48.824Z,12.95
2022-12-25T21:32:00.128Z,12.80
2022-12-25T21:34:57.751Z,11.52
2022-12-25T21:37:55.188Z,10.45
2022-12-25T21:40:52.871Z,9.65
2022-12-25T21:43:50.860Z,9.00
2022-12-25T21:46:48.443Z,8.43
2022-12-25T21:50:04.442Z,8.49
2022-12-25T21:53:01.869Z,9.78
2022-12-25T21:55:59.663Z,10.11
2022-12-25T21:58:57.101Z,10.22
2022-12-25T22:01:54.962Z,10.15
2022-12-25T22:04:52.745Z,10.10
2022-12-25T22:07:50.209Z,10.55
2022-12-25T22:10:47.894Z,11.35
2022-12-25T22:13:59.186Z,12.08
2022-12-25T22:17:14.546Z,12.59
2022-12-25T22:20:12.322Z,12.92
2022-12-25T22:23:09.770Z,12.70
2022-12-25T22:26:07.524Z,11.46
2022-12-25T22:29:04.980Z,10.33
2022-12-25T22:32:02.765Z,9.48
2022-12-25T22:35:00.578Z,8.80
2022-12-25T22:37:58.287Z,8.24
2022-12-25T22:40:55.918Z,7.74
2022-12-25T22:44:16.616Z,7.54
2022-12-25T22:47:11.000Z,8.56
2022-12-25T22:50:08.438Z,9.57
2022-12-25T22:53:06.196Z,9.74
2022-12-25T22:56:03.624Z,9.78
2022-12-25T22:59:01.278Z,9.79
2022-12-25T23:01:58.816Z,9.83
2022-12-25T23:04:56.642Z,10.39
2022-12-25T23:07:54.299Z,10.61
2022-12-25T23:10:51.735Z,10.55
2022-12-25T23:14:07.445Z,10.36
2022-12-25T23:17:04.877Z,10.27
2022-12-25T23:20:20.627Z,10.29
2022-12-25T23:23:35.972Z,11.01
2022-12-25T23:26:33.393Z,11.03
2022-12-25T23:29:40.408Z,11.22
2022-12-25T23:32:37.842Z,10.81
2022-12-25T23:35:35.570Z,9.74
2022-12-25T23:38:33.003Z,8.84
2022-12-25T23:41:30.709Z,8.13
2022-12-25T23:44:28.134Z,7.57
2022-12-25T23:47:25.886Z,7.42
2022-12-25T23:50:23.317Z,8.26
2022-12-25T23:53:20.978Z,8.87
2022-12-25T23:56:18.591Z,9.32
2022-12-25T23:59:16.034Z,10.17
